Time;durP1;ratioP1;P1;durP2;ratioP2;P2;SDS_P1;SDS_P2;PMS_P1;PMS_P2;Temp;Humidity;BMP_temperature;BMP_pressure;BME280_temperature;BME280_humidity;BME280_pressure;Samples;Min_cycle;Max_cycle;Signal;HPM_P1;HPM_P2
2024/03/17 00:01:05;;;;;;;;;;;;;;;8.55;56.79;98690.03;5053397;28;19924;-82
2024/03/17 00:03:32;;;;;;;;;;;;;;;8.45;58.23;98682.75;5053741;28;19932;-81
2024/03/17 00:05:59;;;;;;;;;;;;;;;8.38;58.42;98683.06;5036612;28;20729;-82
2024/03/17 00:08:47;;;;;;;;;;;;;;;8.45;58.57;98681.94;5053086;28;20574;-83
2024/03/17 00:11:13;;;;;;;;;;;;;;;8.44;58.13;98685.75;5052012;28;20296;-83
2024/03/17 00:13:39;;;;;;;;;;;;;;;8.45;58.18;98676.53;5032378;28;19924;-81
2024/03/17 00:16:05;;;;;;;;;;;;;;;8.42;58.77;98682.53;5033604;28;19932;-83
2024/03/17 00:18:32;;;;;;;;;;;;;;;8.39;58.75;98684.69;5067046;28;19925;-83
2024/03/17 00:20:59;;;;;;;;;;;;;;;8.37;59.12;98689.56;5068929;28;19929;-82
2024/03/17 00:23:26;;;;;;;;;;;;;;;8.33;59.21;98702.00;5054212;28;20676;-82
2024/03/17 00:25:52;;;;;;;;;;;;;;;8.28;58.87;98698.50;5025469;28;20031;-82
2024/03/17 00:28:20;;;;;;;;;;;;;;;8.35;58.71;98689.00;5059070;28;19990;-82
2024/03/17 00:30:47;;;;;;;;;;;;;;;8.37;58.40;98691.47;5045851;28;19925;-83
2024/03/17 00:33:14;;;;;;;;;;;;;;;8.36;57.75;98687.97;5047263;28;19942;-83
2024/03/17 00:35:41;;;;;;;;;;;;;;;8.30;57.87;98685.50;5055460;28;19924;-82
2024/03/17 00:38:10;;;;;;;;;;;;;;;8.23;58.63;98688.50;5035818;28;20384;-82
2024/03/17 00:40:36;;;;;;;;;;;;;;;8.23;58.55;98690.41;5040143;28;19970;-82
2024/03/17 00:43:03;;;;;;;;;;;;;;;8.26;59.23;98701.50;5053193;28;19925;-86
2024/03/17 00:45:29;;;;;;;;;;;;;;;8.24;59.85;98698.25;5036751;28;19994;-82
2024/03/17 00:47:56;;;;;;;;;;;;;;;8.29;59.86;98697.41;5046807;28;20360;-83
2024/03/17 00:50:23;;;;;;;;;;;;;;;8.31;58.78;98696.06;5056206;28;19924;-81
2024/03/17 00:52:50;;;;;;;;;;;;;;;8.32;59.23;98688.75;5055387;28;19931;-82
2024/03/17 00:55:17;;;;;;;;;;;;;;;8.32;59.16;98703.09;5056859;28;19935;-79
2024/03/17 00:57:46;;;;;;;;;;;;;;;8.35;58.84;98690.91;5034060;28;19930;-80
2024/03/17 01:00:12;;;;;;;;;;;;;;;8.35;58.71;98693.59;5077381;28;19931;-79
2024/03/17 01:02:40;;;;;;;;;;;;;;;8.36;57.80;98693.38;5056594;28;19931;-79
2024/03/17 01:05:06;;;;;;;;;;;;;;;8.45;58.02;98690.06;5087576;28;20497;-79
2024/03/17 01:07:33;;;;;;;;;;;;;;;8.49;58.62;98680.31;5082939;28;19928;-80
2024/03/17 01:09:59;;;;;;;;;;;;;;;8.51;57.66;98691.66;5070299;28;20268;-79
2024/03/17 01:12:27;;;;;;;;;;;;;;;8.48;57.84;98693.03;5083022;28;20019;-80
2024/03/17 01:14:53;;;;;;;;;;;;;;;8.55;57.52;98681.91;5075892;28;19937;-80
2024/03/17 01:17:20;;;;;;;;;;;;;;;8.44;57.07;98683.03;5053833;28;19966;-81
2024/03/17 01:19:46;;;;;;;;;;;;;;;8.44;57.46;98685.75;5036967;28;19932;-79
2024/03/17 01:22:12;;;;;;;;;;;;;;;8.46;57.25;98683.56;5064349;28;20018;-80
2024/03/17 01:24:42;;;;;;;;;;;;;;;8.46;57.36;98680.84;5074102;28;19924;-80
2024/03/17 01:27:14;;;;;;;;;;;;;;;8.45;57.97;98680.06;5041344;28;19978;-80
2024/03/17 01:29:41;;;;;;;;;;;;;;;8.51;57.23;98683.53;5083317;28;19931;-81
2024/03/17 01:32:07;;;;;;;;;;;;;;;8.60;57.19;98677.25;5067218;28;19924;-81
2024/03/17 01:34:34;;;;;;;;;;;;;;;8.72;57.09;98674.22;5067098;28;19963;-81
2024/03/17 01:37:04;;;;;;;;;;;;;;;8.75;57.46;98676.38;5081939;28;20522;-81
2024/03/17 01:39:33;;;;;;;;;;;;;;;8.97;57.59;98675.94;5086638;28;19924;-79
2024/03/17 01:42:00;;;;;;;;;;;;;;;8.96;57.55;98670.81;5073152;28;19924;-80
2024/03/17 01:44:27;;;;;;;;;;;;;;;9.01;57.82;98663.47;5059098;28;19924;-81
2024/03/17 01:46:55;;;;;;;;;;;;;;;9.01;57.71;98666.19;5050072;28;19925;-84
2024/03/17 01:49:21;;;;;;;;;;;;;;;9.00;58.10;98656.44;5073552;28;19928;-83
2024/03/17 01:51:48;;;;;;;;;;;;;;;8.99;58.23;98654.78;5059144;28;19977;-83
2024/03/17 01:54:14;;;;;;;;;;;;;;;8.77;58.58;98657.94;5089180;28;19958;-83
2024/03/17 01:56:41;;;;;;;;;;;;;;;8.87;58.70;98649.72;5064690;28;19935;-83
2024/03/17 01:59:07;;;;;;;;;;;;;;;8.91;59.01;98653.50;5060006;28;19985;-83
2024/03/17 02:01:35;;;;;;;;;;;;;;;8.88;59.15;98653.25;5052790;28;19983;-83
2024/03/17 02:04:02;;;;;;;;;;;;;;;9.01;58.85;98649.91;5074867;28;19980;-83
2024/03/17 02:06:28;;;;;;;;;;;;;;;9.04;59.26;98654.75;5046784;28;19924;-85
2024/03/17 02:08:54;;;;;;;;;;;;;;;8.84;59.26;98641.34;5054730;28;19924;-84
2024/03/17 02:11:24;;;;;;;;;;;;;;;9.00;58.99;98645.59;5043399;28;20577;-83
2024/03/17 02:13:50;;;;;;;;;;;;;;;9.02;58.65;98637.16;5075220;28;19923;-84
2024/03/17 02:16:17;;;;;;;;;;;;;;;8.94;59.17;98635.84;5081556;28;20399;-84
2024/03/17 02:18:47;;;;;;;;;;;;;;;8.92;59.38;98638.06;5045661;28;19974;-84
2024/03/17 02:21:15;;;;;;;;;;;;;;;8.98;58.79;98633.41;5070333;28;19924;-83
2024/03/17 02:23:43;;;;;;;;;;;;;;;8.86;59.00;98633.75;5075287;28;19932;-84
2024/03/17 02:26:09;;;;;;;;;;;;;;;8.68;59.69;98631.72;5080938;28;19977;-84
2024/03/17 02:28:39;;;;;;;;;;;;;;;8.78;59.08;98628.94;5058124;28;19924;-84
2024/03/17 02:31:06;;;;;;;;;;;;;;;8.74;59.05;98619.78;5074380;28;20379;-84
2024/03/17 02:33:31;;;;;;;;;;;;;;;8.69;59.18;98617.91;5071396;28;20363;-84
2024/03/17 02:35:59;;;;;;;;;;;;;;;8.50;59.45;98622.34;5057511;28;19928;-83
2024/03/17 02:41:08;;;;;;;;;;;;;;;8.55;59.64;98625.03;5067578;28;20092;-83
2024/03/17 02:43:35;;;;;;;;;;;;;;;8.47;59.73;98631.84;5076522;28;19929;-80
2024/03/17 02:46:04;;;;;;;;;;;;;;;8.30;60.39;98624.03;5073514;28;19931;-83
2024/03/17 02:48:31;;;;;;;;;;;;;;;8.36;59.96;98622.97;5062004;28;19948;-84
2024/03/17 02:50:58;;;;;;;;;;;;;;;8.35;60.03;98628.63;5082471;28;19924;-84
2024/03/17 02:53:25;;;;;;;;;;;;;;;8.16;60.49;98628.47;5073145;28;20334;-85
2024/03/17 02:55:55;;;;;;;;;;;;;;;8.15;60.74;98629.56;5052489;28;19931;-85
2024/03/17 02:58:23;;;;;;;;;;;;;;;8.29;60.60;98624.31;5078988;28;19944;-85
2024/03/17 03:00:59;;;;;;;;;;;;;;;8.25;60.46;98624.06;5065133;28;19925;-84
2024/03/17 03:03:27;;;;;;;;;;;;;;;8.38;60.11;98623.50;5055790;28;19924;-83
2024/03/17 03:05:56;;;;;;;;;;;;;;;8.27;60.45;98621.09;5062785;28;19946;-85
2024/03/17 03:08:23;;;;;;;;;;;;;;;8.12;61.57;98630.09;5065489;28;19936;-85
2024/03/17 03:10:50;;;;;;;;;;;;;;;8.24;60.89;98633.28;5094777;28;20011;-84
2024/03/17 03:13:17;;;;;;;;;;;;;;;8.36;60.90;98631.09;5060396;28;19924;-84
2024/03/17 03:15:47;;;;;;;;;;;;;;;8.11;61.37;98631.19;5055227;28;20502;-85
2024/03/17 03:18:14;;;;;;;;;;;;;;;8.11;61.88;98636.59;5038719;28;19929;-85
2024/03/17 03:20:41;;;;;;;;;;;;;;;8.17;61.42;98634.69;5071364;28;20460;-85
2024/03/17 03:23:39;;;;;;;;;;;;;;;8.05;61.81;98638.53;5055818;28;19932;-85
2024/03/17 03:26:08;;;;;;;;;;;;;;;8.02;61.93;98652.59;5062117;28;19924;-85
2024/03/17 03:28:36;;;;;;;;;;;;;;;8.06;61.82;98634.72;5050356;28;19924;-85
2024/03/17 03:31:04;;;;;;;;;;;;;;;8.11;62.07;98642.00;5066716;28;19929;-86
2024/03/17 03:33:31;;;;;;;;;;;;;;;8.15;61.65;98645.78;5072426;28;19973;-86
2024/03/17 03:35:58;;;;;;;;;;;;;;;8.20;61.54;98642.22;5072121;28;20379;-86
2024/03/17 03:38:25;;;;;;;;;;;;;;;8.05;61.96;98640.41;5058423;28;19925;-86
2024/03/17 03:40:53;;;;;;;;;;;;;;;8.07;62.02;98639.03;5051542;28;19935;-86
2024/03/17 03:43:22;;;;;;;;;;;;;;;8.04;62.30;98644.19;5058794;28;19924;-85
2024/03/17 03:45:48;;;;;;;;;;;;;;;8.06;61.89;98644.75;5064177;28;19924;-86
2024/03/17 03:48:18;;;;;;;;;;;;;;;8.23;61.27;98641.69;5057836;28;19932;-87
2024/03/17 03:50:44;;;;;;;;;;;;;;;7.95;62.45;98641.25;5063839;28;20609;-86
2024/03/17 03:53:11;;;;;;;;;;;;;;;7.93;62.56;98646.13;5071937;28;19947;-86
2024/03/17 03:55:38;;;;;;;;;;;;;;;7.96;62.70;98648.28;5095241;28;20007;-85
2024/03/17 03:58:05;;;;;;;;;;;;;;;8.02;62.89;98640.97;5079539;28;19930;-84
2024/03/17 04:00:32;;;;;;;;;;;;;;;8.32;61.70;98640.84;5070478;28;20406;-85
2024/03/17 04:02:59;;;;;;;;;;;;;;;8.50;61.12;98636.69;5069575;28;19974;-84
2024/03/17 04:05:28;;;;;;;;;;;;;;;8.35;61.35;98642.16;5064694;28;19924;-85
2024/03/17 04:07:56;;;;;;;;;;;;;;;8.12;62.17;98635.50;5061705;28;19924;-85
2024/03/17 04:10:24;;;;;;;;;;;;;;;8.12;62.25;98636.31;5055313;28;19928;-80
2024/03/17 04:12:51;;;;;;;;;;;;;;;8.35;61.51;98640.25;5066987;28;19974;-82
2024/03/17 04:15:18;;;;;;;;;;;;;;;8.36;61.34;98636.53;5076985;28;19924;-85
2024/03/17 04:17:45;;;;;;;;;;;;;;;8.35;60.92;98640.25;5068613;28;19995;-86
2024/03/17 04:20:13;;;;;;;;;;;;;;;8.21;61.62;98633.03;5067068;28;19935;-84
2024/03/17 04:22:42;;;;;;;;;;;;;;;8.26;61.83;98630.31;5101781;28;19932;-81
2024/03/17 04:25:09;;;;;;;;;;;;;;;8.28;62.07;98628.94;5085437;28;19927;-86
2024/03/17 04:27:36;;;;;;;;;;;;;;;8.24;61.97;98627.88;5105796;28;19928;-86
2024/03/17 04:30:29;;;;;;;;;;;;;;;8.09;62.46;98627.94;5074832;28;20391;-87
2024/03/17 04:32:56;;;;;;;;;;;;;;;8.12;62.89;98630.91;5074876;28;20057;-87
2024/03/17 04:35:23;;;;;;;;;;;;;;;8.22;62.66;98629.25;5061472;28;19963;-86
2024/03/17 04:37:51;;;;;;;;;;;;;;;8.27;62.37;98632.75;5065336;28;20028;-87
2024/03/17 04:40:18;;;;;;;;;;;;;;;8.07;63.25;98638.25;5082760;28;19946;-86
2024/03/17 04:42:45;;;;;;;;;;;;;;;8.07;63.46;98644.47;5094703;28;19927;-85
2024/03/17 04:45:13;;;;;;;;;;;;;;;8.18;62.92;98634.41;5083967;28;19924;-86
2024/03/17 04:47:40;;;;;;;;;;;;;;;8.07;63.43;98635.53;5072147;28;19928;-85
2024/03/17 04:50:07;;;;;;;;;;;;;;;8.10;63.70;98635.00;5070403;28;20027;-87
2024/03/17 04:52:35;;;;;;;;;;;;;;;8.17;63.01;98638.19;5088727;28;19927;-87
2024/03/17 04:55:04;;;;;;;;;;;;;;;8.53;62.26;98640.75;5051248;28;20303;-86
2024/03/17 04:57:30;;;;;;;;;;;;;;;8.56;61.86;98642.88;5081445;28;20014;-86
2024/03/17 04:59:57;;;;;;;;;;;;;;;8.39;62.59;98638.66;5060212;28;19924;-87
2024/03/17 05:02:24;;;;;;;;;;;;;;;8.40;62.41;98637.56;5073344;28;20558;-87
2024/03/17 05:04:51;;;;;;;;;;;;;;;8.29;62.83;98630.56;5061965;28;19994;-88
2024/03/17 05:07:18;;;;;;;;;;;;;;;8.05;63.83;98629.59;5060804;28;19960;-87
2024/03/17 05:09:45;;;;;;;;;;;;;;;8.08;64.20;98632.53;5056993;28;19928;-87
2024/03/17 05:12:13;;;;;;;;;;;;;;;8.10;64.02;98632.28;5070576;28;19928;-89
2024/03/17 05:14:44;;;;;;;;;;;;;;;8.15;64.19;98632.25;5097717;28;20035;-84
2024/03/17 05:17:10;;;;;;;;;;;;;;;8.20;63.91;98637.63;5092638;28;19927;-79
2024/03/17 05:19:37;;;;;;;;;;;;;;;8.14;64.28;98633.31;5084427;28;20522;-80
2024/03/17 05:22:04;;;;;;;;;;;;;;;8.24;63.85;98644.09;5062225;28;20196;-80
2024/03/17 05:24:31;;;;;;;;;;;;;;;8.19;64.10;98644.13;5075834;28;20340;-78
2024/03/17 05:26:58;;;;;;;;;;;;;;;8.31;63.91;98652.75;5068238;28;19924;-78
2024/03/17 05:29:26;;;;;;;;;;;;;;;8.34;63.69;98654.88;5077828;28;19985;-78
2024/03/17 05:31:53;;;;;;;;;;;;;;;8.21;64.24;98650.09;5064503;28;19928;-78
2024/03/17 05:34:20;;;;;;;;;;;;;;;8.24;64.45;98648.72;5044871;28;19928;-78
2024/03/17 05:36:47;;;;;;;;;;;;;;;8.34;64.29;98651.38;5065747;28;19924;-79
2024/03/17 05:39:13;;;;;;;;;;;;;;;8.52;63.49;98656.19;5072232;28;19924;-79
2024/03/17 05:41:41;;;;;;;;;;;;;;;8.35;63.66;98653.00;5050165;28;20287;-80
2024/03/17 05:44:07;;;;;;;;;;;;;;;8.15;64.22;98656.63;5072206;28;19954;-80
2024/03/17 05:46:36;;;;;;;;;;;;;;;8.28;64.18;98663.31;5058822;28;19929;-79
2024/03/17 05:49:03;;;;;;;;;;;;;;;8.25;63.63;98661.97;5076693;28;19931;-81
2024/03/17 05:51:30;;;;;;;;;;;;;;;8.27;63.68;98659.81;5053322;28;19927;-79
2024/03/17 05:53:58;;;;;;;;;;;;;;;7.96;64.56;98658.31;5067682;28;19924;-84
2024/03/17 05:56:25;;;;;;;;;;;;;;;7.92;64.63;98657.22;5059891;28;20032;-84
2024/03/17 05:58:51;;;;;;;;;;;;;;;7.86;64.75;98665.34;5058586;28;19923;-84
2024/03/17 06:01:19;;;;;;;;;;;;;;;7.85;64.67;98669.16;5069574;28;19931;-84
2024/03/17 06:03:47;;;;;;;;;;;;;;;8.10;64.33;98662.06;5073068;28;19928;-85
2024/03/17 06:06:13;;;;;;;;;;;;;;;7.92;64.67;98668.06;5047894;28;22144;-85
2024/03/17 06:08:41;;;;;;;;;;;;;;;7.91;64.86;98677.25;5043768;28;19925;-83
2024/03/17 06:11:08;;;;;;;;;;;;;;;8.14;64.53;98680.16;5065332;28;19928;-84
2024/03/17 06:13:36;;;;;;;;;;;;;;;8.37;63.83;98675.22;5075526;28;19932;-83
2024/03/17 06:16:04;;;;;;;;;;;;;;;8.15;63.97;98670.16;5057125;28;19963;-83
2024/03/17 06:18:32;;;;;;;;;;;;;;;8.09;64.74;98674.75;5060973;28;19931;-84
2024/03/17 06:21:00;;;;;;;;;;;;;;;8.30;64.23;98666.53;5051874;28;19925;-84
2024/03/17 06:23:28;;;;;;;;;;;;;;;8.36;63.91;98669.00;5054178;28;19931;-81
2024/03/17 06:25:55;;;;;;;;;;;;;;;8.35;63.99;98672.75;5054625;28;20679;-80
2024/03/17 06:28:22;;;;;;;;;;;;;;;8.44;63.93;98669.50;5056464;28;19928;-88
2024/03/17 06:30:55;;;;;;;;;;;;;;;8.44;64.02;98680.34;5048528;28;19925;-76
2024/03/17 06:33:22;;;;;;;;;;;;;;;8.65;63.23;98671.00;5057532;28;20395;-85
2024/03/17 06:35:49;;;;;;;;;;;;;;;8.43;63.99;98667.91;5058766;28;19931;-90
2024/03/17 06:38:19;;;;;;;;;;;;;;;8.55;63.78;98665.66;5050731;28;19924;-86
2024/03/17 06:40:49;;;;;;;;;;;;;;;8.60;63.51;98673.75;5071124;28;19936;-85
2024/03/17 06:43:15;;;;;;;;;;;;;;;8.46;63.91;98667.31;5069547;28;19935;-80
2024/03/17 06:45:43;;;;;;;;;;;;;;;8.70;63.40;98664.75;5071145;28;19925;-79
2024/03/17 06:48:10;;;;;;;;;;;;;;;8.44;64.42;98673.03;5062958;28;19924;-79
2024/03/17 06:50:39;;;;;;;;;;;;;;;8.52;64.63;98672.44;5069917;28;19924;-83
2024/03/17 06:53:05;;;;;;;;;;;;;;;8.61;63.64;98667.25;5061850;28;20062;-78
2024/03/17 06:55:33;;;;;;;;;;;;;;;8.69;63.53;98671.28;5078418;28;19932;-84
2024/03/17 06:58:00;;;;;;;;;;;;;;;8.47;64.06;98663.50;5047783;28;20136;-81
2024/03/17 07:00:27;;;;;;;;;;;;;;;8.51;64.11;98664.59;5084208;28;19928;-77
2024/03/17 07:02:55;;;;;;;;;;;;;;;8.51;64.68;98653.75;5074809;28;19928;-82
2024/03/17 07:05:22;;;;;;;;;;;;;;;8.51;64.67;98642.91;5063210;28;19971;-87
2024/03/17 07:07:49;;;;;;;;;;;;;;;8.30;65.04;98642.19;5054471;28;21748;-81
2024/03/17 07:10:16;;;;;;;;;;;;;;;8.33;65.26;98650.56;5072626;28;19935;-79
2024/03/17 07:12:44;;;;;;;;;;;;;;;8.34;65.68;98652.19;5080458;28;19931;-86
2024/03/17 07:15:12;;;;;;;;;;;;;;;8.23;66.07;98664.16;5074024;28;19970;-90
2024/03/17 07:17:39;;;;;;;;;;;;;;;8.42;65.70;98660.88;5044164;28;19964;-83
2024/03/17 07:20:08;;;;;;;;;;;;;;;8.55;65.80;98666.47;5066740;28;19937;-86
2024/03/17 07:22:35;;;;;;;;;;;;;;;8.79;64.50;98653.06;5057248;28;19939;-79
2024/03/17 07:25:02;;;;;;;;;;;;;;;8.57;64.97;98648.03;5054044;28;19946;-79
2024/03/17 07:27:29;;;;;;;;;;;;;;;8.58;65.28;98660.50;5071645;28;20375;-81
2024/03/17 07:29:57;;;;;;;;;;;;;;;8.75;65.20;98654.69;5054012;28;19993;-80
2024/03/17 07:32:26;;;;;;;;;;;;;;;8.73;65.58;98656.88;5060769;28;19928;-82
2024/03/17 07:34:53;;;;;;;;;;;;;;;8.87;65.14;98655.16;5048562;28;19970;-84
2024/03/17 07:37:20;;;;;;;;;;;;;;;8.89;65.05;98649.44;5056472;28;19974;-84
2024/03/17 07:39:49;;;;;;;;;;;;;;;8.81;65.04;98659.00;5053926;28;19951;-84
2024/03/17 07:42:16;;;;;;;;;;;;;;;8.88;65.40;98656.75;5072301;28;19935;-84
2024/03/17 07:44:44;;;;;;;;;;;;;;;9.11;65.00;98654.44;5062681;28;19986;-83
2024/03/17 07:47:16;;;;;;;;;;;;;;;9.19;64.36;98656.53;5057124;28;19935;-85
2024/03/17 07:49:46;;;;;;;;;;;;;;;9.22;64.75;98642.44;5075428;28;20045;-78
2024/03/17 07:52:13;;;;;;;;;;;;;;;9.16;63.95;98644.38;5080568;28;20354;-84
2024/03/17 07:54:40;;;;;;;;;;;;;;;9.23;64.20;98638.63;5055693;28;19936;-89
2024/03/17 07:57:08;;;;;;;;;;;;;;;9.26;64.15;98634.50;5079789;28;19924;-77
2024/03/17 07:59:35;;;;;;;;;;;;;;;9.21;64.02;98637.28;5076229;28;19946;-80
2024/03/17 08:02:02;;;;;;;;;;;;;;;9.26;64.34;98632.59;5068413;28;19925;-83
2024/03/17 08:04:30;;;;;;;;;;;;;;;9.22;64.61;98642.44;5061296;28;19975;-83
2024/03/17 08:06:57;;;;;;;;;;;;;;;9.29;64.13;98639.38;5065615;28;20383;-83
2024/03/17 08:12:24;;;;;;;;;;;;;;;9.58;62.97;98628.50;5061742;28;19924;-83
2024/03/17 08:14:51;;;;;;;;;;;;;;;9.59;62.86;98636.38;5077365;28;20380;-83
2024/03/17 08:17:18;;;;;;;;;;;;;;;9.56;62.92;98630.72;5070666;28;19942;-81
2024/03/17 08:19:47;;;;;;;;;;;;;;;9.60;62.79;98634.47;5076049;28;19934;-81
2024/03/17 08:22:14;;;;;;;;;;;;;;;9.71;63.11;98633.28;5090360;28;20371;-82
2024/03/17 08:24:41;;;;;;;;;;;;;;;9.72;62.43;98629.47;5091209;28;19935;-82
2024/03/17 08:27:07;;;;;;;;;;;;;;;9.79;62.30;98629.09;5058055;28;19973;-82
2024/03/17 08:29:35;;;;;;;;;;;;;;;9.93;62.20;98630.84;5040114;28;19932;-82
2024/03/17 08:32:02;;;;;;;;;;;;;;;9.98;62.17;98629.97;5055494;28;19931;-82
2024/03/17 08:34:29;;;;;;;;;;;;;;;9.92;61.49;98623.81;5066994;28;20007;-82
2024/03/17 08:36:57;;;;;;;;;;;;;;;10.01;61.32;98610.38;5049144;28;19924;-83
2024/03/17 08:39:24;;;;;;;;;;;;;;;10.12;61.04;98601.03;5042359;28;19929;-83
2024/03/17 08:41:50;;;;;;;;;;;;;;;10.21;61.12;98601.19;5052272;28;19932;-82
2024/03/17 08:44:17;;;;;;;;;;;;;;;10.38;60.22;98603.41;5062284;28;20359;-82
2024/03/17 08:46:44;;;;;;;;;;;;;;;10.42;59.82;98605.25;5072780;28;20428;-77
2024/03/17 08:49:11;;;;;;;;;;;;;;;10.49;59.22;98608.44;5063592;28;19939;-78
2024/03/17 08:51:37;;;;;;;;;;;;;;;10.54;58.82;98604.00;5068158;28;19935;-77
2024/03/17 08:54:05;;;;;;;;;;;;;;;10.63;58.98;98613.13;5053308;28;20289;-78
2024/03/17 08:56:34;;;;;;;;;;;;;;;10.62;57.96;98611.53;5053041;28;19925;-77
2024/03/17 08:59:00;;;;;;;;;;;;;;;10.73;56.79;98616.50;5059675;28;20613;-77
2024/03/17 09:01:28;;;;;;;;;;;;;;;10.89;56.19;98614.34;5082579;28;19975;-77
2024/03/17 09:03:56;;;;;;;;;;;;;;;10.87;55.57;98607.63;5056580;28;19928;-77
2024/03/17 09:06:23;;;;;;;;;;;;;;;11.05;53.93;98600.53;5056893;28;20272;-78
2024/03/17 09:08:51;;;;;;;;;;;;;;;11.04;53.88;98601.63;5058431;28;19926;-77
2024/03/17 09:11:24;;;;;;;;;;;;;;;11.10;54.38;98595.00;5066069;28;20443;-77
2024/03/17 09:13:51;;;;;;;;;;;;;;;11.09;52.41;98604.28;5050803;28;20050;-77
2024/03/17 09:16:18;;;;;;;;;;;;;;;11.22;51.88;98601.56;5065103;28;19924;-77
2024/03/17 09:18:45;;;;;;;;;;;;;;;11.26;51.40;98599.06;5049214;28;19924;-78
2024/03/17 09:21:13;;;;;;;;;;;;;;;11.32;51.35;98603.31;5055332;28;20016;-78
2024/03/17 09:23:39;;;;;;;;;;;;;;;11.48;50.91;98598.41;5061549;28;19924;-77
2024/03/17 09:26:08;;;;;;;;;;;;;;;11.69;51.26;98596.13;5073471;28;19994;-77
2024/03/17 09:28:36;;;;;;;;;;;;;;;11.65;51.31;98603.25;5047739;28;19925;-77
2024/03/17 09:31:06;;;;;;;;;;;;;;;11.69;50.93;98601.56;5052724;28;19970;-77
2024/03/17 09:33:34;;;;;;;;;;;;;;;11.68;50.29;98605.38;5041978;28;19950;-77
2024/03/17 09:36:01;;;;;;;;;;;;;;;11.71;50.26;98602.84;5046539;28;19928;-77
2024/03/17 09:38:28;;;;;;;;;;;;;;;11.76;50.63;98600.03;5052058;28;19924;-77
2024/03/17 09:40:57;;;;;;;;;;;;;;;11.77;50.10;98590.78;5058554;28;19948;-77
2024/03/17 09:43:24;;;;;;;;;;;;;;;11.86;49.07;98588.16;5051301;28;19928;-77
2024/03/17 09:45:56;;;;;;;;;;;;;;;11.67;49.37;98587.44;5069540;28;19997;-77
2024/03/17 09:48:22;;;;;;;;;;;;;;;11.68;49.27;98580.91;5041403;28;19928;-77
2024/03/17 09:50:51;;;;;;;;;;;;;;;11.80;48.98;98589.34;5066726;28;19935;-77
2024/03/17 09:53:19;;;;;;;;;;;;;;;11.97;48.55;98583.31;5037119;28;19981;-76
2024/03/17 09:55:45;;;;;;;;;;;;;;;12.06;46.87;98573.34;5055097;28;19928;-77
2024/03/17 09:58:15;;;;;;;;;;;;;;;12.03;46.71;98568.50;5027392;28;22540;-77
2024/03/17 10:00:42;;;;;;;;;;;;;;;12.15;47.74;98562.53;5061421;28;19948;-77
2024/03/17 10:03:10;;;;;;;;;;;;;;;12.24;46.86;98571.59;5067190;28;20407;-77
2024/03/17 10:05:37;;;;;;;;;;;;;;;12.41;47.20;98577.22;5068101;28;20431;-77
2024/03/17 10:08:03;;;;;;;;;;;;;;;12.53;47.45;98566.56;5049289;28;19931;-77
2024/03/17 10:10:30;;;;;;;;;;;;;;;12.55;47.29;98569.00;5059891;28;19986;-77
2024/03/17 10:12:57;;;;;;;;;;;;;;;12.69;47.20;98567.03;5068082;28;19938;-77
2024/03/17 10:15:23;;;;;;;;;;;;;;;12.69;45.91;98564.31;5043335;28;19924;-78
2024/03/17 10:17:50;;;;;;;;;;;;;;;12.69;46.07;98563.50;5051767;28;19924;-78
2024/03/17 10:20:20;;;;;;;;;;;;;;;12.67;45.29;98568.44;5051977;28;19933;-77
2024/03/17 10:22:58;;;;;;;;;;;;;;;12.80;45.13;98571.13;5038463;28;20304;-77
2024/03/17 10:25:25;;;;;;;;;;;;;;;12.85;45.33;98565.53;5058332;28;19928;-77
2024/03/17 10:27:53;;;;;;;;;;;;;;;12.92;45.65;98564.31;5068355;28;19924;-78
2024/03/17 10:30:21;;;;;;;;;;;;;;;12.78;45.18;98561.63;5048609;28;19929;-78
2024/03/17 10:32:52;;;;;;;;;;;;;;;12.82;44.64;98559.88;5047355;28;19924;-77
2024/03/17 10:35:28;;;;;;;;;;;;;;;12.98;45.19;98552.13;5065421;28;20009;-76
2024/03/17 10:37:55;;;;;;;;;;;;;;;13.10;45.26;98544.19;5059464;28;19929;-77
2024/03/17 10:40:22;;;;;;;;;;;;;;;13.13;44.24;98550.94;5057098;28;20419;-76
2024/03/17 10:42:49;;;;;;;;;;;;;;;13.26;45.38;98544.63;5055001;28;19929;-76
2024/03/17 10:45:16;;;;;;;;;;;;;;;13.39;45.14;98551.94;5051816;28;19924;-77
2024/03/17 10:47:43;;;;;;;;;;;;;;;13.29;43.80;98563.13;5043674;28;20347;-77
2024/03/17 10:50:10;;;;;;;;;;;;;;;13.33;45.55;98559.44;5048109;28;19924;-80
2024/03/17 10:52:39;;;;;;;;;;;;;;;13.32;44.43;98551.59;5061525;28;19928;-81
2024/03/17 10:55:08;;;;;;;;;;;;;;;13.30;46.02;98551.88;5043626;28;20023;-80
2024/03/17 10:57:37;;;;;;;;;;;;;;;13.24;45.53;98539.50;5073184;28;20038;-80
2024/03/17 11:00:05;;;;;;;;;;;;;;;13.26;46.22;98534.53;5072839;28;19924;-80
2024/03/17 11:02:32;;;;;;;;;;;;;;;13.21;45.68;98533.81;5053884;28;19982;-78
2024/03/17 11:05:00;;;;;;;;;;;;;;;13.06;45.34;98535.84;5035124;28;19928;-84
2024/03/17 11:07:28;;;;;;;;;;;;;;;12.87;45.08;98529.78;5066441;28;19935;-82
2024/03/17 11:09:57;;;;;;;;;;;;;;;12.84;46.13;98527.69;5074063;28;19924;-78
2024/03/17 11:12:41;;;;;;;;;;;;;;;12.86;45.60;98539.06;5075160;28;19931;-81
2024/03/17 11:15:24;;;;;;;;;;;;;;;12.75;46.18;98535.00;5075663;28;19963;-82
2024/03/17 11:17:52;;;;;;;;;;;;;;;12.66;46.05;98542.28;5042964;28;22004;-92
2024/03/17 11:20:22;;;;;;;;;;;;;;;12.63;46.54;98540.22;5056632;28;20375;-86
2024/03/17 11:22:49;;;;;;;;;;;;;;;12.69;46.40;98544.41;5054241;28;20027;-87
2024/03/17 11:25:38;;;;;;;;;;;;;;;12.48;47.39;98542.16;5076717;28;19928;-94
2024/03/17 11:28:09;;;;;;;;;;;;;;;12.46;46.87;98533.47;5057929;28;19932;-89
2024/03/17 11:30:43;;;;;;;;;;;;;;;12.40;46.15;98531.97;5043851;28;19924;-89
2024/03/17 11:33:25;;;;;;;;;;;;;;;12.46;46.79;98533.47;5042554;28;19939;-88
2024/03/17 11:35:50;;;;;;;;;;;;;;;12.40;47.00;98531.97;5042030;28;20335;-89
2024/03/17 11:38:32;;;;;;;;;;;;;;;12.45;47.21;98518.25;5056741;28;19931;-88
2024/03/17 11:41:13;;;;;;;;;;;;;;;12.51;47.07;98522.44;5067157;28;20457;-82
2024/03/17 11:43:41;;;;;;;;;;;;;;;12.61;47.24;98517.88;5057863;28;19978;-84
2024/03/17 11:46:09;;;;;;;;;;;;;;;12.62;46.99;98511.31;5068494;28;19972;-83
2024/03/17 11:49:02;;;;;;;;;;;;;;;12.65;46.86;98513.44;5053017;28;19924;-89
2024/03/17 11:51:28;;;;;;;;;;;;;;;12.72;46.25;98500.16;5071232;28;19930;-81
2024/03/17 11:53:58;;;;;;;;;;;;;;;12.82;46.70;98502.63;5072915;28;19931;-81
2024/03/17 11:56:24;;;;;;;;;;;;;;;12.88;46.57;98497.84;5069689;28;20372;-81
2024/03/17 11:59:05;;;;;;;;;;;;;;;12.94;46.55;98496.59;5067491;28;19931;-80
2024/03/17 12:01:31;;;;;;;;;;;;;;;12.95;46.48;98495.50;5051822;28;20031;-81
2024/03/17 12:03:59;;;;;;;;;;;;;;;13.00;46.32;98485.28;5065486;28;19936;-80
2024/03/17 12:06:25;;;;;;;;;;;;;;;13.09;46.05;98494.28;5055717;28;19930;-80
2024/03/17 12:08:51;;;;;;;;;;;;;;;13.14;46.05;98478.91;5054526;28;19928;-80
2024/03/17 12:11:18;;;;;;;;;;;;;;;13.20;47.03;98483.91;5051763;28;19925;-80
2024/03/17 12:13:44;;;;;;;;;;;;;;;13.22;45.94;98481.72;5072679;28;19928;-79
2024/03/17 12:16:13;;;;;;;;;;;;;;;13.15;45.84;98484.03;5047239;28;20291;-78
2024/03/17 12:18:41;;;;;;;;;;;;;;;13.21;45.86;98482.84;5057207;28;19924;-78
2024/03/17 12:21:11;;;;;;;;;;;;;;;13.26;45.81;98487.31;5060448;28;19927;-77
2024/03/17 12:23:37;;;;;;;;;;;;;;;13.33;45.31;98471.31;5066527;28;20014;-77
2024/03/17 12:26:03;;;;;;;;;;;;;;;13.43;45.25;98462.84;5070847;28;20439;-77
2024/03/17 12:28:30;;;;;;;;;;;;;;;13.33;45.16;98465.88;5069151;28;19938;-76
2024/03/17 12:30:59;;;;;;;;;;;;;;;13.32;45.15;98464.25;5069997;28;19924;-76
2024/03/17 12:33:27;;;;;;;;;;;;;;;13.46;45.40;98466.84;5069551;28;19962;-76
2024/03/17 12:35:54;;;;;;;;;;;;;;;13.51;44.63;98456.59;5056483;28;19995;-77
2024/03/17 12:38:22;;;;;;;;;;;;;;;13.62;44.78;98451.66;5084315;28;19924;-77
2024/03/17 12:40:48;;;;;;;;;;;;;;;13.68;44.91;98457.75;5085535;28;19928;-78
2024/03/17 12:43:15;;;;;;;;;;;;;;;13.63;44.70;98454.06;5044996;28;19924;-78
2024/03/17 12:45:41;;;;;;;;;;;;;;;13.60;44.42;98448.44;5069085;28;20050;-78
2024/03/17 12:48:12;;;;;;;;;;;;;;;13.64;44.79;98446.69;5069289;28;20276;-78
2024/03/17 12:50:45;;;;;;;;;;;;;;;13.61;45.72;98434.47;5073339;28;20309;-77
2024/03/17 12:53:15;;;;;;;;;;;;;;;13.67;45.21;98439.78;5060080;28;19952;-78
2024/03/17 13:01:12;;;;;;;;;;;;;;;13.82;44.55;98433.84;5070241;28;21229;-77
2024/03/17 13:03:40;;;;;;;;;;;;;;;13.71;44.38;98427.09;5079436;28;19927;-78
2024/03/17 13:06:09;;;;;;;;;;;;;;;13.61;44.72;98418.09;5058057;28;19978;-78
2024/03/17 13:08:37;;;;;;;;;;;;;;;13.63;44.66;98421.31;5053759;28;19928;-78